sensor_id;sensor_type;location;lat;lon;timestamp;P1;durP1;ratioP1;P2;durP2;ratioP2
18447;SDS011;9353;50.956;6.920;2022-08-19T00:01:55;9.13;;;8.63;;
18447;SDS011;9353;50.956;6.920;2022-08-19T00:04:23;9.70;;;8.93;;
18447;SDS011;9353;50.956;6.920;2022-08-19T00:06:51;9.03;;;8.40;;
18447;SDS011;9353;50.956;6.920;2022-08-19T00:09:20;9.67;;;8.70;;
18447;SDS011;9353;50.956;6.920;2022-08-19T00:11:48;9.83;;;9.07;;
18447;SDS011;9353;50.956;6.920;2022-08-19T00:14:15;10.87;;;9.60;;
18447;SDS011;9353;50.956;6.920;2022-08-19T00:16:43;10.07;;;9.47;;
18447;SDS011;9353;50.956;6.920;2022-08-19T00:19:11;8.83;;;8.27;;
18447;SDS011;9353;50.956;6.920;2022-08-19T00:21:38;9.60;;;9.10;;
18447;SDS011;9353;50.956;6.920;2022-08-19T00:24:05;10.43;;;9.60;;
18447;SDS011;9353;50.956;6.920;2022-08-19T00:26:34;9.90;;;9.20;;
18447;SDS011;9353;50.956;6.920;2022-08-19T00:29:02;10.30;;;9.30;;
18447;SDS011;9353;50.956;6.920;2022-08-19T00:31:29;10.83;;;9.97;;
18447;SDS011;9353;50.956;6.920;2022-08-19T00:33:57;11.00;;;10.37;;
18447;SDS011;9353;50.956;6.920;2022-08-19T00:36:24;11.63;;;11.03;;
18447;SDS011;9353;50.956;6.920;2022-08-19T00:38:51;10.97;;;10.37;;
18447;SDS011;9353;50.956;6.920;2022-08-19T00:41:19;10.73;;;10.00;;
18447;SDS011;9353;50.956;6.920;2022-08-19T00:43:57;10.97;;;10.30;;
18447;SDS011;9353;50.956;6.920;2022-08-19T00:46:25;11.63;;;10.80;;
18447;SDS011;9353;50.956;6.920;2022-08-19T00:48:52;11.43;;;10.60;;
18447;SDS011;9353;50.956;6.920;2022-08-19T00:51:19;11.17;;;10.47;;
18447;SDS011;9353;50.956;6.920;2022-08-19T00:53:47;11.60;;;10.70;;
18447;SDS011;9353;50.956;6.920;2022-08-19T00:56:14;12.63;;;10.83;;
18447;SDS011;9353;50.956;6.920;2022-08-19T00:58:41;11.70;;;11.00;;
18447;SDS011;9353;50.956;6.920;2022-08-19T01:01:09;12.03;;;11.07;;
18447;SDS011;9353;50.956;6.920;2022-08-19T01:03:37;12.20;;;11.30;;
18447;SDS011;9353;50.956;6.920;2022-08-19T01:06:04;13.33;;;12.27;;
18447;SDS011;9353;50.956;6.920;2022-08-19T01:08:32;11.00;;;10.20;;
18447;SDS011;9353;50.956;6.920;2022-08-19T01:10:59;10.73;;;10.03;;
18447;SDS011;9353;50.956;6.920;2022-08-19T01:13:27;12.87;;;11.93;;
18447;SDS011;9353;50.956;6.920;2022-08-19T01:15:56;11.00;;;10.20;;
18447;SDS011;9353;50.956;6.920;2022-08-19T01:18:25;12.20;;;11.27;;
18447;SDS011;9353;50.956;6.920;2022-08-19T01:20:53;12.00;;;11.10;;
18447;SDS011;9353;50.956;6.920;2022-08-19T01:23:22;11.53;;;10.50;;
18447;SDS011;9353;50.956;6.920;2022-08-19T01:26:07;10.77;;;10.17;;
18447;SDS011;9353;50.956;6.920;2022-08-19T01:28:35;11.27;;;10.43;;
18447;SDS011;9353;50.956;6.920;2022-08-19T01:31:03;11.47;;;10.50;;
18447;SDS011;9353;50.956;6.920;2022-08-19T01:33:30;11.97;;;11.00;;
18447;SDS011;9353;50.956;6.920;2022-08-19T01:36:03;12.60;;;11.80;;
18447;SDS011;9353;50.956;6.920;2022-08-19T01:38:34;11.47;;;10.63;;
18447;SDS011;9353;50.956;6.920;2022-08-19T01:41:01;11.40;;;10.57;;
18447;SDS011;9353;50.956;6.920;2022-08-19T01:43:28;11.73;;;10.63;;
18447;SDS011;9353;50.956;6.920;2022-08-19T01:45:55;11.77;;;10.97;;
18447;SDS011;9353;50.956;6.920;2022-08-19T01:48:22;10.60;;;10.00;;
18447;SDS011;9353;50.956;6.920;2022-08-19T01:50:50;11.23;;;10.23;;
18447;SDS011;9353;50.956;6.920;2022-08-19T01:53:17;11.33;;;10.63;;
18447;SDS011;9353;50.956;6.920;2022-08-19T01:55:46;12.00;;;11.20;;
18447;SDS011;9353;50.956;6.920;2022-08-19T01:58:14;11.20;;;10.37;;
18447;SDS011;9353;50.956;6.920;2022-08-19T02:00:43;11.50;;;10.70;;
18447;SDS011;9353;50.956;6.920;2022-08-19T02:03:11;11.47;;;10.57;;
18447;SDS011;9353;50.956;6.920;2022-08-19T02:05:39;12.17;;;11.30;;
18447;SDS011;9353;50.956;6.920;2022-08-19T02:08:06;12.03;;;10.83;;
18447;SDS011;9353;50.956;6.920;2022-08-19T02:10:33;11.17;;;10.17;;
18447;SDS011;9353;50.956;6.920;2022-08-19T02:13:05;11.37;;;10.77;;
18447;SDS011;9353;50.956;6.920;2022-08-19T02:15:33;11.33;;;10.53;;
18447;SDS011;9353;50.956;6.920;2022-08-19T02:18:00;11.80;;;10.27;;
18447;SDS011;9353;50.956;6.920;2022-08-19T02:20:27;11.23;;;10.33;;
18447;SDS011;9353;50.956;6.920;2022-08-19T02:22:54;12.50;;;11.70;;
18447;SDS011;9353;50.956;6.920;2022-08-19T02:25:21;13.70;;;12.60;;
18447;SDS011;9353;50.956;6.920;2022-08-19T02:27:48;12.97;;;11.77;;
18447;SDS011;9353;50.956;6.920;2022-08-19T02:30:17;13.00;;;12.10;;
18447;SDS011;9353;50.956;6.920;2022-08-19T02:32:44;12.37;;;11.33;;
18447;SDS011;9353;50.956;6.920;2022-08-19T02:35:12;13.63;;;12.70;;
18447;SDS011;9353;50.956;6.920;2022-08-19T02:37:39;12.27;;;11.37;;
18447;SDS011;9353;50.956;6.920;2022-08-19T02:40:24;11.83;;;11.13;;
18447;SDS011;9353;50.956;6.920;2022-08-19T02:42:51;12.43;;;11.73;;
18447;SDS011;9353;50.956;6.920;2022-08-19T02:45:19;12.60;;;11.67;;
18447;SDS011;9353;50.956;6.920;2022-08-19T02:47:47;12.87;;;11.83;;
18447;SDS011;9353;50.956;6.920;2022-08-19T02:50:14;13.43;;;11.83;;
18447;SDS011;9353;50.956;6.920;2022-08-19T02:52:42;12.93;;;12.13;;
18447;SDS011;9353;50.956;6.920;2022-08-19T02:55:10;13.50;;;12.40;;
18447;SDS011;9353;50.956;6.920;2022-08-19T02:57:37;13.23;;;12.23;;
18447;SDS011;9353;50.956;6.920;2022-08-19T03:00:04;12.20;;;11.30;;
18447;SDS011;9353;50.956;6.920;2022-08-19T03:02:33;13.07;;;11.97;;
18447;SDS011;9353;50.956;6.920;2022-08-19T03:05:02;13.77;;;12.60;;
18447;SDS011;9353;50.956;6.920;2022-08-19T03:07:29;15.33;;;13.93;;
18447;SDS011;9353;50.956;6.920;2022-08-19T03:09:56;14.63;;;13.63;;
18447;SDS011;9353;50.956;6.920;2022-08-19T03:12:23;17.20;;;15.77;;
18447;SDS011;9353;50.956;6.920;2022-08-19T03:14:50;17.17;;;15.73;;
18447;SDS011;9353;50.956;6.920;2022-08-19T03:17:17;15.50;;;14.20;;
18447;SDS011;9353;50.956;6.920;2022-08-19T03:19:46;15.90;;;14.47;;
18447;SDS011;9353;50.956;6.920;2022-08-19T03:22:13;16.13;;;15.03;;
18447;SDS011;9353;50.956;6.920;2022-08-19T03:24:40;16.87;;;15.60;;
18447;SDS011;9353;50.956;6.920;2022-08-19T03:27:08;16.50;;;15.00;;
18447;SDS011;9353;50.956;6.920;2022-08-19T03:29:36;17.43;;;16.03;;
18447;SDS011;9353;50.956;6.920;2022-08-19T03:32:04;18.77;;;17.10;;
18447;SDS011;9353;50.956;6.920;2022-08-19T03:34:32;18.83;;;17.10;;
18447;SDS011;9353;50.956;6.920;2022-08-19T03:37:03;18.33;;;16.93;;
18447;SDS011;9353;50.956;6.920;2022-08-19T03:39:30;19.73;;;17.93;;
18447;SDS011;9353;50.956;6.920;2022-08-19T03:41:57;19.83;;;17.70;;
18447;SDS011;9353;50.956;6.920;2022-08-19T03:44:27;21.23;;;19.10;;
18447;SDS011;9353;50.956;6.920;2022-08-19T03:46:55;19.53;;;18.07;;
18447;SDS011;9353;50.956;6.920;2022-08-19T03:49:23;19.23;;;17.73;;
18447;SDS011;9353;50.956;6.920;2022-08-19T03:51:52;19.60;;;17.93;;
18447;SDS011;9353;50.956;6.920;2022-08-19T03:54:21;19.57;;;17.70;;
18447;SDS011;9353;50.956;6.920;2022-08-19T03:56:50;20.43;;;18.43;;
18447;SDS011;9353;50.956;6.920;2022-08-19T03:59:21;21.00;;;18.93;;
18447;SDS011;9353;50.956;6.920;2022-08-19T04:01:50;20.97;;;19.27;;
18447;SDS011;9353;50.956;6.920;2022-08-19T04:04:17;20.77;;;18.97;;
18447;SDS011;9353;50.956;6.920;2022-08-19T04:06:44;21.67;;;19.70;;
18447;SDS011;9353;50.956;6.920;2022-08-19T04:09:12;24.47;;;21.60;;
18447;SDS011;9353;50.956;6.920;2022-08-19T04:11:41;24.70;;;22.40;;
18447;SDS011;9353;50.956;6.920;2022-08-19T04:14:09;24.40;;;21.77;;
18447;SDS011;9353;50.956;6.920;2022-08-19T04:16:36;28.73;;;24.97;;
18447;SDS011;9353;50.956;6.920;2022-08-19T04:19:04;26.93;;;24.10;;
18447;SDS011;9353;50.956;6.920;2022-08-19T04:21:31;27.57;;;24.77;;
18447;SDS011;9353;50.956;6.920;2022-08-19T04:23:58;28.57;;;25.67;;
18447;SDS011;9353;50.956;6.920;2022-08-19T04:26:26;29.73;;;26.80;;
18447;SDS011;9353;50.956;6.920;2022-08-19T04:28:58;32.57;;;27.80;;
18447;SDS011;9353;50.956;6.920;2022-08-19T04:31:26;31.00;;;27.70;;
18447;SDS011;9353;50.956;6.920;2022-08-19T04:33:54;32.27;;;28.37;;
18447;SDS011;9353;50.956;6.920;2022-08-19T04:36:25;35.33;;;27.87;;
18447;SDS011;9353;50.956;6.920;2022-08-19T04:38:53;35.30;;;28.70;;
18447;SDS011;9353;50.956;6.920;2022-08-19T04:41:21;34.50;;;29.40;;
18447;SDS011;9353;50.956;6.920;2022-08-19T04:44:08;31.50;;;28.03;;
18447;SDS011;9353;50.956;6.920;2022-08-19T04:46:35;36.73;;;30.43;;
18447;SDS011;9353;50.956;6.920;2022-08-19T04:49:03;34.47;;;29.03;;
18447;SDS011;9353;50.956;6.920;2022-08-19T04:51:31;37.37;;;28.93;;
18447;SDS011;9353;50.956;6.920;2022-08-19T04:53:58;31.63;;;28.23;;
18447;SDS011;9353;50.956;6.920;2022-08-19T04:56:26;32.50;;;29.10;;
18447;SDS011;9353;50.956;6.920;2022-08-19T04:58:53;35.90;;;29.37;;
18447;SDS011;9353;50.956;6.920;2022-08-19T05:01:23;33.70;;;29.13;;
18447;SDS011;9353;50.956;6.920;2022-08-19T05:03:51;33.73;;;27.50;;
18447;SDS011;9353;50.956;6.920;2022-08-19T05:06:19;32.50;;;28.43;;
18447;SDS011;9353;50.956;6.920;2022-08-19T05:08:46;35.30;;;28.23;;
18447;SDS011;9353;50.956;6.920;2022-08-19T05:11:17;34.90;;;29.30;;
18447;SDS011;9353;50.956;6.920;2022-08-19T05:13:46;35.43;;;29.00;;
18447;SDS011;9353;50.956;6.920;2022-08-19T05:16:14;37.27;;;30.77;;
18447;SDS011;9353;50.956;6.920;2022-08-19T05:18:43;35.33;;;30.73;;
18447;SDS011;9353;50.956;6.920;2022-08-19T05:21:28;39.83;;;31.10;;
18447;SDS011;9353;50.956;6.920;2022-08-19T05:24:14;38.63;;;32.63;;
18447;SDS011;9353;50.956;6.920;2022-08-19T05:26:42;38.67;;;31.87;;
18447;SDS011;9353;50.956;6.920;2022-08-19T05:29:10;36.47;;;31.70;;
18447;SDS011;9353;50.956;6.920;2022-08-19T05:31:37;37.57;;;31.70;;
18447;SDS011;9353;50.956;6.920;2022-08-19T05:34:06;36.90;;;32.90;;
18447;SDS011;9353;50.956;6.920;2022-08-19T05:36:35;33.77;;;30.13;;
18447;SDS011;9353;50.956;6.920;2022-08-19T05:39:04;42.43;;;31.93;;
18447;SDS011;9353;50.956;6.920;2022-08-19T05:41:32;34.40;;;30.97;;
18447;SDS011;9353;50.956;6.920;2022-08-19T05:44:00;39.07;;;32.60;;
18447;SDS011;9353;50.956;6.920;2022-08-19T05:46:31;34.37;;;30.77;;
18447;SDS011;9353;50.956;6.920;2022-08-19T05:48:58;33.87;;;30.20;;
18447;SDS011;9353;50.956;6.920;2022-08-19T05:51:26;37.03;;;31.27;;
18447;SDS011;9353;50.956;6.920;2022-08-19T05:53:53;35.80;;;30.23;;
18447;SDS011;9353;50.956;6.920;2022-08-19T05:56:21;38.67;;;31.10;;
18447;SDS011;9353;50.956;6.920;2022-08-19T05:58:48;32.97;;;29.53;;
18447;SDS011;9353;50.956;6.920;2022-08-19T06:01:15;33.23;;;28.43;;
18447;SDS011;9353;50.956;6.920;2022-08-19T06:03:44;35.77;;;29.37;;
18447;SDS011;9353;50.956;6.920;2022-08-19T06:06:13;35.17;;;30.13;;
18447;SDS011;9353;50.956;6.920;2022-08-19T06:08:42;34.23;;;30.53;;
18447;SDS011;9353;50.956;6.920;2022-08-19T06:11:17;33.07;;;29.13;;
18447;SDS011;9353;50.956;6.920;2022-08-19T06:13:45;32.07;;;28.80;;
18447;SDS011;9353;50.956;6.920;2022-08-19T06:16:15;32.17;;;28.67;;
18447;SDS011;9353;50.956;6.920;2022-08-19T06:18:45;33.07;;;28.10;;
18447;SDS011;9353;50.956;6.920;2022-08-19T06:21:13;32.30;;;27.60;;
18447;SDS011;9353;50.956;6.920;2022-08-19T06:23:41;31.30;;;27.90;;
18447;SDS011;9353;50.956;6.920;2022-08-19T06:26:11;31.77;;;28.47;;
18447;SDS011;9353;50.956;6.920;2022-08-19T06:28:38;32.87;;;27.83;;
18447;SDS011;9353;50.956;6.920;2022-08-19T06:31:07;30.17;;;26.67;;
18447;SDS011;9353;50.956;6.920;2022-08-19T06:33:35;29.80;;;26.70;;
18447;SDS011;9353;50.956;6.920;2022-08-19T06:36:04;34.47;;;27.63;;
18447;SDS011;9353;50.956;6.920;2022-08-19T06:38:31;30.10;;;26.90;;
18447;SDS011;9353;50.956;6.920;2022-08-19T06:41:03;32.63;;;28.00;;
18447;SDS011;9353;50.956;6.920;2022-08-19T06:43:31;30.47;;;27.27;;
18447;SDS011;9353;50.956;6.920;2022-08-19T06:45:58;33.00;;;27.63;;
18447;SDS011;9353;50.956;6.920;2022-08-19T06:48:26;35.87;;;28.93;;
18447;SDS011;9353;50.956;6.920;2022-08-19T06:50:53;40.17;;;27.97;;
18447;SDS011;9353;50.956;6.920;2022-08-19T06:53:20;35.60;;;28.00;;
18447;SDS011;9353;50.956;6.920;2022-08-19T06:55:47;36.03;;;27.77;;
18447;SDS011;9353;50.956;6.920;2022-08-19T06:58:23;30.70;;;27.40;;
18447;SDS011;9353;50.956;6.920;2022-08-19T07:00:50;32.80;;;27.53;;
18447;SDS011;9353;50.956;6.920;2022-08-19T07:03:17;35.17;;;27.93;;
18447;SDS011;9353;50.956;6.920;2022-08-19T07:05:46;32.83;;;27.47;;
18447;SDS011;9353;50.956;6.920;2022-08-19T07:08:13;32.80;;;25.97;;
18447;SDS011;9353;50.956;6.920;2022-08-19T07:10:42;40.53;;;29.00;;
18447;SDS011;9353;50.956;6.920;2022-08-19T07:13:09;29.57;;;26.23;;
18447;SDS011;9353;50.956;6.920;2022-08-19T07:15:38;29.67;;;26.47;;
18447;SDS011;9353;50.956;6.920;2022-08-19T07:18:05;31.80;;;27.00;;
18447;SDS011;9353;50.956;6.920;2022-08-19T07:20:32;35.33;;;27.67;;
18447;SDS011;9353;50.956;6.920;2022-08-19T07:22:59;33.13;;;26.03;;
18447;SDS011;9353;50.956;6.920;2022-08-19T07:25:26;34.93;;;26.87;;
18447;SDS011;9353;50.956;6.920;2022-08-19T07:27:53;36.90;;;28.67;;
18447;SDS011;9353;50.956;6.920;2022-08-19T07:30:20;37.27;;;28.23;;
18447;SDS011;9353;50.956;6.920;2022-08-19T07:32:50;34.70;;;25.73;;
18447;SDS011;9353;50.956;6.920;2022-08-19T07:35:17;33.77;;;27.50;;
18447;SDS011;9353;50.956;6.920;2022-08-19T07:37:45;34.83;;;27.53;;
18447;SDS011;9353;50.956;6.920;2022-08-19T07:40:12;38.90;;;27.73;;
18447;SDS011;9353;50.956;6.920;2022-08-19T07:42:39;34.17;;;27.77;;
18447;SDS011;9353;50.956;6.920;2022-08-19T07:45:07;31.30;;;25.50;;
18447;SDS011;9353;50.956;6.920;2022-08-19T07:47:35;34.97;;;26.57;;
18447;SDS011;9353;50.956;6.920;2022-08-19T07:50:04;30.77;;;27.03;;
18447;SDS011;9353;50.956;6.920;2022-08-19T07:52:32;36.13;;;28.63;;
18447;SDS011;9353;50.956;6.920;2022-08-19T07:54:59;36.07;;;28.93;;
18447;SDS011;9353;50.956;6.920;2022-08-19T07:57:28;36.43;;;29.10;;
18447;SDS011;9353;50.956;6.920;2022-08-19T07:59:55;42.43;;;30.57;;
18447;SDS011;9353;50.956;6.920;2022-08-19T08:02:22;42.93;;;29.57;;
18447;SDS011;9353;50.956;6.920;2022-08-19T08:04:50;40.83;;;29.80;;
18447;SDS011;9353;50.956;6.920;2022-08-19T08:07:50;47.00;;;32.63;;
18447;SDS011;9353;50.956;6.920;2022-08-19T08:10:35;40.57;;;31.53;;
18447;SDS011;9353;50.956;6.920;2022-08-19T08:13:02;43.37;;;31.73;;
18447;SDS011;9353;50.956;6.920;2022-08-19T08:15:30;57.07;;;34.80;;
18447;SDS011;9353;50.956;6.920;2022-08-19T08:17:58;47.00;;;33.97;;
18447;SDS011;9353;50.956;6.920;2022-08-19T08:20:25;44.97;;;33.83;;
18447;SDS011;9353;50.956;6.920;2022-08-19T08:22:53;46.87;;;34.47;;
18447;SDS011;9353;50.956;6.920;2022-08-19T08:25:37;45.93;;;33.07;;
18447;SDS011;9353;50.956;6.920;2022-08-19T08:28:04;45.07;;;32.93;;
18447;SDS011;9353;50.956;6.920;2022-08-19T08:30:33;49.90;;;34.13;;
18447;SDS011;9353;50.956;6.920;2022-08-19T08:33:02;43.80;;;32.40;;
18447;SDS011;9353;50.956;6.920;2022-08-19T08:35:29;49.27;;;34.33;;
18447;SDS011;9353;50.956;6.920;2022-08-19T08:37:57;49.73;;;33.97;;
18447;SDS011;9353;50.956;6.920;2022-08-19T08:40:26;42.47;;;32.27;;
18447;SDS011;9353;50.956;6.920;2022-08-19T08:42:55;52.50;;;35.63;;
18447;SDS011;9353;50.956;6.920;2022-08-19T08:45:25;47.67;;;35.13;;
18447;SDS011;9353;50.956;6.920;2022-08-19T08:47:53;44.90;;;32.70;;
18447;SDS011;9353;50.956;6.920;2022-08-19T08:50:24;47.03;;;34.40;;
18447;SDS011;9353;50.956;6.920;2022-08-19T08:52:53;50.10;;;34.53;;
18447;SDS011;9353;50.956;6.920;2022-08-19T08:55:24;39.73;;;30.60;;
18447;SDS011;9353;50.956;6.920;2022-08-19T08:57:52;53.93;;;33.13;;
18447;SDS011;9353;50.956;6.920;2022-08-19T09:00:21;47.47;;;35.73;;
18447;SDS011;9353;50.956;6.920;2022-08-19T09:02:49;49.40;;;34.73;;
18447;SDS011;9353;50.956;6.920;2022-08-19T09:05:16;49.67;;;33.87;;
18447;SDS011;9353;50.956;6.920;2022-08-19T09:07:46;42.03;;;31.37;;
18447;SDS011;9353;50.956;6.920;2022-08-19T09:10:18;41.03;;;29.90;;
18447;SDS011;9353;50.956;6.920;2022-08-19T09:12:52;48.37;;;29.23;;
18447;SDS011;9353;50.956;6.920;2022-08-19T09:15:22;35.27;;;28.77;;
18447;SDS011;9353;50.956;6.920;2022-08-19T09:17:52;38.33;;;28.73;;
18447;SDS011;9353;50.956;6.920;2022-08-19T09:20:19;40.60;;;29.20;;
18447;SDS011;9353;50.956;6.920;2022-08-19T09:22:47;38.03;;;26.53;;
18447;SDS011;9353;50.956;6.920;2022-08-19T09:25:16;35.57;;;28.60;;
18447;SDS011;9353;50.956;6.920;2022-08-19T09:27:43;32.27;;;27.50;;
18447;SDS011;9353;50.956;6.920;2022-08-19T09:30:13;34.25;;;26.48;;
18447;SDS011;9353;50.956;6.920;2022-08-19T09:32:40;32.67;;;25.63;;
18447;SDS011;9353;50.956;6.920;2022-08-19T09:35:08;28.20;;;24.07;;
18447;SDS011;9353;50.956;6.920;2022-08-19T09:37:35;25.40;;;22.73;;
18447;SDS011;9353;50.956;6.920;2022-08-19T09:40:03;25.43;;;22.77;;
18447;SDS011;9353;50.956;6.920;2022-08-19T09:42:31;23.38;;;20.92;;
18447;SDS011;9353;50.956;6.920;2022-08-19T09:44:58;29.30;;;23.05;;
18447;SDS011;9353;50.956;6.920;2022-08-19T09:47:27;22.20;;;19.70;;
18447;SDS011;9353;50.956;6.920;2022-08-19T09:49:54;22.30;;;20.00;;
18447;SDS011;9353;50.956;6.920;2022-08-19T09:52:22;22.67;;;19.10;;
18447;SDS011;9353;50.956;6.920;2022-08-19T09:54:51;20.92;;;18.90;;
18447;SDS011;9353;50.956;6.920;2022-08-19T09:57:18;23.67;;;18.63;;
18447;SDS011;9353;50.956;6.920;2022-08-19T09:59:45;19.63;;;16.35;;
18447;SDS011;9353;50.956;6.920;2022-08-19T10:02:12;18.33;;;16.65;;
18447;SDS011;9353;50.956;6.920;2022-08-19T10:04:41;16.77;;;15.23;;
18447;SDS011;9353;50.956;6.920;2022-08-19T10:07:26;15.48;;;14.18;;
18447;SDS011;9353;50.956;6.920;2022-08-19T10:09:53;18.50;;;15.27;;
18447;SDS011;9353;50.956;6.920;2022-08-19T10:12:20;15.10;;;13.77;;
18447;SDS011;9353;50.956;6.920;2022-08-19T10:14:47;16.70;;;14.93;;
18447;SDS011;9353;50.956;6.920;2022-08-19T10:17:16;17.23;;;15.63;;
18447;SDS011;9353;50.956;6.920;2022-08-19T10:19:44;15.00;;;13.77;;
18447;SDS011;9353;50.956;6.920;2022-08-19T10:22:12;19.42;;;17.40;;
18447;SDS011;9353;50.956;6.920;2022-08-19T10:24:39;15.20;;;13.77;;
18447;SDS011;9353;50.956;6.920;2022-08-19T10:27:07;16.15;;;14.65;;
18447;SDS011;9353;50.956;6.920;2022-08-19T10:29:34;16.02;;;14.48;;
18447;SDS011;9353;50.956;6.920;2022-08-19T10:32:02;14.82;;;13.70;;
18447;SDS011;9353;50.956;6.920;2022-08-19T10:34:30;15.02;;;13.77;;
18447;SDS011;9353;50.956;6.920;2022-08-19T10:36:59;14.38;;;13.30;;
18447;SDS011;9353;50.956;6.920;2022-08-19T10:39:27;17.00;;;15.43;;
18447;SDS011;9353;50.956;6.920;2022-08-19T10:41:55;15.43;;;13.98;;
18447;SDS011;9353;50.956;6.920;2022-08-19T10:44:22;16.63;;;15.10;;
18447;SDS011;9353;50.956;6.920;2022-08-19T10:46:49;16.88;;;15.38;;
18447;SDS011;9353;50.956;6.920;2022-08-19T10:49:17;17.30;;;15.90;;
18447;SDS011;9353;50.956;6.920;2022-08-19T10:51:44;16.17;;;14.68;;
18447;SDS011;9353;50.956;6.920;2022-08-19T10:54:31;16.27;;;14.98;;
18447;SDS011;9353;50.956;6.920;2022-08-19T10:57:17;19.45;;;17.55;;
18447;SDS011;9353;50.956;6.920;2022-08-19T10:59:44;16.23;;;14.73;;
18447;SDS011;9353;50.956;6.920;2022-08-19T11:02:12;18.95;;;17.15;;
18447;SDS011;9353;50.956;6.920;2022-08-19T11:04:39;17.20;;;15.40;;
18447;SDS011;9353;50.956;6.920;2022-08-19T11:07:06;16.08;;;14.90;;
18447;SDS011;9353;50.956;6.920;2022-08-19T11:09:38;16.42;;;15.10;;
18447;SDS011;9353;50.956;6.920;2022-08-19T11:12:05;17.02;;;15.63;;
18447;SDS011;9353;50.956;6.920;2022-08-19T11:14:33;15.85;;;14.85;;
18447;SDS011;9353;50.956;6.920;2022-08-19T11:17:01;14.13;;;13.25;;
18447;SDS011;9353;50.956;6.920;2022-08-19T11:19:28;13.15;;;12.10;;
18447;SDS011;9353;50.956;6.920;2022-08-19T11:21:55;12.05;;;11.20;;
18447;SDS011;9353;50.956;6.920;2022-08-19T11:24:25;12.45;;;11.65;;
18447;SDS011;9353;50.956;6.920;2022-08-19T11:26:54;12.90;;;12.20;;
18447;SDS011;9353;50.956;6.920;2022-08-19T11:29:24;14.80;;;13.75;;
18447;SDS011;9353;50.956;6.920;2022-08-19T11:31:52;14.32;;;13.23;;
18447;SDS011;9353;50.956;6.920;2022-08-19T11:34:21;14.02;;;13.23;;
18447;SDS011;9353;50.956;6.920;2022-08-19T11:36:49;12.40;;;11.63;;
18447;SDS011;9353;50.956;6.920;2022-08-19T11:39:18;11.57;;;10.88;;
18447;SDS011;9353;50.956;6.920;2022-08-19T11:41:45;10.82;;;9.93;;
18447;SDS011;9353;50.956;6.920;2022-08-19T11:44:14;12.45;;;11.75;;
18447;SDS011;9353;50.956;6.920;2022-08-19T11:46:42;12.38;;;11.05;;
18447;SDS011;9353;50.956;6.920;2022-08-19T11:49:10;11.48;;;10.77;;
18447;SDS011;9353;50.956;6.920;2022-08-19T11:51:37;10.80;;;10.20;;
18447;SDS011;9353;50.956;6.920;2022-08-19T11:54:05;11.82;;;11.00;;
18447;SDS011;9353;50.956;6.920;2022-08-19T11:56:32;9.48;;;8.88;;
18447;SDS011;9353;50.956;6.920;2022-08-19T11:58:59;9.40;;;8.93;;
18447;SDS011;9353;50.956;6.920;2022-08-19T12:01:28;9.30;;;8.70;;
18447;SDS011;9353;50.956;6.920;2022-08-19T12:03:56;10.00;;;9.40;;
18447;SDS011;9353;50.956;6.920;2022-08-19T12:06:25;10.32;;;9.15;;
18447;SDS011;9353;50.956;6.920;2022-08-19T12:08:53;10.60;;;9.85;;
18447;SDS011;9353;50.956;6.920;2022-08-19T12:11:20;10.15;;;9.45;;
18447;SDS011;9353;50.956;6.920;2022-08-19T12:13:47;8.90;;;8.40;;
18447;SDS011;9353;50.956;6.920;2022-08-19T12:16:16;9.93;;;9.32;;
18447;SDS011;9353;50.956;6.920;2022-08-19T12:18:45;9.63;;;8.93;;
18447;SDS011;9353;50.956;6.920;2022-08-19T12:21:12;9.48;;;8.68;;
18447;SDS011;9353;50.956;6.920;2022-08-19T12:23:40;9.25;;;8.57;;
18447;SDS011;9353;50.956;6.920;2022-08-19T12:26:08;8.27;;;7.68;;
18447;SDS011;9353;50.956;6.920;2022-08-19T12:28:35;8.15;;;7.72;;
18447;SDS011;9353;50.956;6.920;2022-08-19T12:31:03;7.75;;;7.20;;
18447;SDS011;9353;50.956;6.920;2022-08-19T12:33:30;7.80;;;7.40;;
18447;SDS011;9353;50.956;6.920;2022-08-19T12:36:01;8.75;;;8.02;;
18447;SDS011;9353;50.956;6.920;2022-08-19T12:38:29;8.98;;;8.48;;
18447;SDS011;9353;50.956;6.920;2022-08-19T12:40:57;8.15;;;7.72;;
18447;SDS011;9353;50.956;6.920;2022-08-19T12:43:27;8.05;;;7.55;;
18447;SDS011;9353;50.956;6.920;2022-08-19T12:45:55;9.30;;;8.40;;
18447;SDS011;9353;50.956;6.920;2022-08-19T12:48:22;7.53;;;7.13;;
18447;SDS011;9353;50.956;6.920;2022-08-19T12:50:49;7.85;;;7.35;;
18447;SDS011;9353;50.956;6.920;2022-08-19T12:53:18;7.70;;;7.18;;
18447;SDS011;9353;50.956;6.920;2022-08-19T12:55:45;7.38;;;6.88;;
18447;SDS011;9353;50.956;6.920;2022-08-19T12:58:12;7.63;;;7.03;;
18447;SDS011;9353;50.956;6.920;2022-08-19T13:00:39;8.45;;;7.85;;
18447;SDS011;9353;50.956;6.920;2022-08-19T13:03:06;7.28;;;6.97;;
18447;SDS011;9353;50.956;6.920;2022-08-19T13:05:34;6.50;;;6.20;;
18447;SDS011;9353;50.956;6.920;2022-08-19T13:08:01;8.65;;;8.15;;
18447;SDS011;9353;50.956;6.920;2022-08-19T13:10:30;9.32;;;8.60;;
18447;SDS011;9353;50.956;6.920;2022-08-19T13:13:00;7.95;;;7.47;;
18447;SDS011;9353;50.956;6.920;2022-08-19T13:15:27;7.18;;;6.78;;
18447;SDS011;9353;50.956;6.920;2022-08-19T13:17:56;7.00;;;6.43;;
18447;SDS011;9353;50.956;6.920;2022-08-19T13:20:24;7.25;;;6.65;;
18447;SDS011;9353;50.956;6.920;2022-08-19T13:22:51;7.25;;;6.85;;
18447;SDS011;9353;50.956;6.920;2022-08-19T13:25:19;6.97;;;6.57;;
18447;SDS011;9353;50.956;6.920;2022-08-19T13:27:48;6.97;;;6.47;;
18447;SDS011;9353;50.956;6.920;2022-08-19T13:30:16;6.00;;;5.70;;
18447;SDS011;9353;50.956;6.920;2022-08-19T13:33:01;6.70;;;6.13;;
18447;SDS011;9353;50.956;6.920;2022-08-19T13:35:37;5.53;;;5.18;;
18447;SDS011;9353;50.956;6.920;2022-08-19T13:38:04;5.60;;;5.03;;
18447;SDS011;9353;50.956;6.920;2022-08-19T13:40:31;5.18;;;4.88;;
18447;SDS011;9353;50.956;6.920;2022-08-19T13:43:00;6.43;;;5.82;;
18447;SDS011;9353;50.956;6.920;2022-08-19T13:45:28;5.15;;;4.85;;
18447;SDS011;9353;50.956;6.920;2022-08-19T13:47:57;5.43;;;5.03;;
18447;SDS011;9353;50.956;6.920;2022-08-19T13:50:29;5.38;;;4.85;;
18447;SDS011;9353;50.956;6.920;2022-08-19T13:52:56;5.95;;;5.45;;
18447;SDS011;9353;50.956;6.920;2022-08-19T13:55:24;6.63;;;6.13;;
18447;SDS011;9353;50.956;6.920;2022-08-19T13:57:52;5.82;;;5.40;;
18447;SDS011;9353;50.956;6.920;2022-08-19T14:00:20;6.45;;;5.85;;
18447;SDS011;9353;50.956;6.920;2022-08-19T14:02:51;6.30;;;5.97;;
18447;SDS011;9353;50.956;6.920;2022-08-19T14:05:19;5.40;;;5.10;;
18447;SDS011;9353;50.956;6.920;2022-08-19T14:07:46;8.13;;;6.25;;
18447;SDS011;9353;50.956;6.920;2022-08-19T14:10:13;5.63;;;5.13;;
18447;SDS011;9353;50.956;6.920;2022-08-19T14:12:40;6.05;;;5.75;;
18447;SDS011;9353;50.956;6.920;2022-08-19T14:15:08;5.13;;;4.82;;
18447;SDS011;9353;50.956;6.920;2022-08-19T14:17:38;9.00;;;4.22;;
18447;SDS011;9353;50.956;6.920;2022-08-19T14:20:06;5.07;;;4.88;;
18447;SDS011;9353;50.956;6.920;2022-08-19T14:22:34;6.43;;;5.80;;
18447;SDS011;9353;50.956;6.920;2022-08-19T14:25:02;6.38;;;5.88;;
18447;SDS011;9353;50.956;6.920;2022-08-19T14:27:29;6.18;;;5.78;;
18447;SDS011;9353;50.956;6.920;2022-08-19T14:29:57;7.00;;;6.55;;
18447;SDS011;9353;50.956;6.920;2022-08-19T14:32:24;6.13;;;5.72;;
18447;SDS011;9353;50.956;6.920;2022-08-19T14:34:53;5.47;;;5.10;;
18447;SDS011;9353;50.956;6.920;2022-08-19T14:37:20;4.55;;;4.35;;
18447;SDS011;9353;50.956;6.920;2022-08-19T14:39:47;5.13;;;4.75;;
18447;SDS011;9353;50.956;6.920;2022-08-19T14:42:15;4.68;;;4.28;;
18447;SDS011;9353;50.956;6.920;2022-08-19T14:44:42;4.57;;;4.38;;
18447;SDS011;9353;50.956;6.920;2022-08-19T14:47:09;4.70;;;4.50;;
18447;SDS011;9353;50.956;6.920;2022-08-19T14:49:36;5.68;;;5.22;;